Marida Marigold — V7PO7 — position and weather

sailwx.info

Track history (hours):
 
Tides and Currents Weather Stations Pressure Air Temp Water Temp Dewpoint Dewpoint Depression Visibility Wind Speed Wind Dir Waves Ship Positions

Marida Marigold

Last reported at 2018-Feb-21 04:21 UTC. Time now 2018-Feb-23 04:22 UTC.
Position N 04°39' W 000°53'.

Length 128 m; draft 6 m.

Type: Ship. MMSI: 538005559.

Date/timePositionNaut miles runAvg speedWind from/ knotsBaromVisibWave heightAir tempDewpointWater temp
2018-Feb-21 04:21N 04°39' W 000°53'3 9.0
2018-Feb-21 04:00N 04°41' W 000°50'5 9.1
2018-Feb-21 03:30N 04°43' W 000°47'5 9.2
2018-Feb-21 03:00N 04°46' W 000°43'5 9.2
2018-Feb-21 02:30N 04°47' W 000°38'5 9.2
2018-Feb-21 01:59N 04°49' W 000°34'4 9.3
2018-Feb-21 01:30N 04°51' W 000°30'5 9.2
2018-Feb-21 01:00N 04°54' W 000°26'5 9.2
2018-Feb-21 00:30N 04°56' W 000°22'5 9.1
2018-Feb-21 00:00N 04°59' W 000°18'11 8.9
2018-Feb-20 22:44N 05°05' W 000°09'2 8.9
2018-Feb-20 22:30N 05°06' W 000°07'4 8.8
2018-Feb-20 22:00N 05°10' W 000°05'4 8.8
2018-Feb-20 21:30N 05°13' W 000°02'4 8.7
2018-Feb-20 21:00N 05°17' W 000°01'5 9.2
2018-Feb-20 20:29N 05°22' W 000°01'5 9.2
2018-Feb-20 19:58N 05°27' W 000°01'4 9.2
2018-Feb-20 19:30N 05°31' W 000°01'3 6.2
2018-Feb-20 19:00N 05°34' W 000°00'1 1.3
2018-Feb-20 18:30N 05°35' E 000°00'0 0.4
2018-Feb-20 17:59N 05°35' W 000°00'0 0.0
2018-Feb-20 17:29N 05°35' W 000°00'0 0.0
2018-Feb-20 16:59N 05°35' W 000°00'0 0.0
2018-Feb-20 16:29N 05°35' W 000°00'0 0.1
2018-Feb-20 15:59N 05°35' W 000°00'0 0.0
2018-Feb-20 15:29N 05°35' W 000°00'0 0.2
2018-Feb-20 14:59N 05°35' E 000°00'0 0.2
2018-Feb-20 14:29N 05°35' E 000°00'0 0.2
2018-Feb-20 14:01N 05°35' W 000°00'0 0.1
2018-Feb-20 13:29N 05°35' W 000°00'0 0.0
2018-Feb-20 12:59N 05°35' W 000°00'0 0.1
2018-Feb-20 12:29N 05°35' W 000°00'0 0.0
2018-Feb-20 11:59N 05°35' W 000°00'0 0.0
2018-Feb-20 11:29N 05°35' W 000°00'0 0.5
2018-Feb-20 10:59N 05°35' E 000°00'0 0.1
2018-Feb-20 10:29N 05°35' E 000°00'0 0.0
2018-Feb-20 09:59N 05°35' E 000°00'0 0.0
2018-Feb-20 09:29N 05°35' E 000°00'0 0.0
2018-Feb-20 08:59N 05°35' E 000°00'0 0.0
2018-Feb-20 08:29N 05°35' E 000°00'0 0.0
2018-Feb-20 07:59N 05°35' E 000°00'0 0.0
2018-Feb-20 07:31N 05°35' E 000°00'0 0.0
2018-Feb-20 07:01N 05°35' E 000°00'0 0.0
2018-Feb-20 06:31N 05°35' E 000°00'1 1.2
2018-Feb-20 06:01N 05°35' E 000°01'1 1.2
2018-Feb-20 05:31N 05°34' E 000°01'1 1.1
2018-Feb-20 05:01N 05°34' E 000°02'3 5.7
2018-Feb-20 04:30N 05°33' E 000°04'3 5.8
2018-Feb-20 04:01N 05°31' E 000°06'3 5.9
2018-Feb-20 03:31N 05°29' E 000°09'3 6.1
2018-Feb-20 03:01N 05°27' E 000°11'3 6.4
2018-Feb-20 02:31N 05°25' E 000°13'4 8.4
2018-Feb-20 02:01N 05°22' E 000°17'5 9.1
2018-Feb-20 01:31N 05°19' E 000°20'5 9.1
2018-Feb-20 01:00N 05°17' E 000°24'25 7.9
2018-Feb-19 21:49N 05°01' E 000°43'2 1.1
2018-Feb-19 19:46N 04°60' E 000°41'15 0.7
2018-Feb-18 21:46N 04°46' E 000°35'5 8.4
2018-Feb-18 21:12N 04°48' E 000°40'4 8.4
2018-Feb-18 20:46N 04°49' E 000°43'3 8.5
2018-Feb-18 20:28N 04°50' E 000°46'4 8.6
2018-Feb-18 19:58N 04°52' E 000°50'4 8.5
2018-Feb-18 19:30N 04°53' E 000°53'10 1.2
2018-Feb-18 11:33N 04°60' E 001°00'0 1.6
2018-Feb-18 11:30N 04°60' E 001°00'19 1.0
2018-Feb-17 16:45N 04°54' E 000°42'0 1.5
2018-Feb-17 16:30N 04°54' E 000°42'66 6.0
2018-Feb-17 05:32N 05°51' E 001°15'2 8.5
2018-Feb-17 05:21N 05°53' E 001°15'3 8.6
2018-Feb-17 04:57N 05°56' E 001°14'4 7.8
2018-Feb-17 04:26N 06°00' E 001°13'0 0.8
2018-Feb-17 03:59N 06°00' E 001°13'1 1.4
2018-Feb-17 03:25N 06°01' E 001°14'0 0.2
2018-Feb-17 02:59N 06°01' E 001°14'0 0.1
2018-Feb-17 02:29N 06°01' E 001°14'0 0.0
2018-Feb-16 20:41N 06°01' E 001°14'0 0.0
2018-Feb-16 20:29N 06°01' E 001°14'0 0.0
2018-Feb-16 19:56N 06°01' E 001°14'0 0.0
2018-Feb-16 19:29N 06°01' E 001°14'0 0.0
2018-Feb-16 18:59N 06°01' E 001°14'0 0.0
2018-Feb-16 18:29N 06°01' E 001°14'0 0.0
2018-Feb-16 17:35N 06°01' E 001°14'0 0.0
2018-Feb-16 17:29N 06°01' E 001°14'0 0.0
2018-Feb-16 16:59N 06°01' E 001°14'0 0.0
2018-Feb-16 16:20N 06°01' E 001°14'0 0.0
2018-Feb-16 15:59N 06°01' E 001°14'0 0.0
2018-Feb-16 15:29N 06°01' E 001°14'2 0.1
2018-Feb-16 02:48N 06°02' E 001°15'0 0.0
2018-Feb-16 02:21N 06°02' E 001°15'0 0.0
2018-Feb-16 02:00N 06°02' E 001°15'0 0.0
2018-Feb-16 01:24N 06°02' E 001°15'0 0.0
2018-Feb-16 01:00N 06°02' E 001°15'0 0.0
2018-Feb-16 00:27N 06°02' E 001°15'0 0.0
2018-Feb-16 00:00N 06°02' E 001°15'0 0.0
2018-Feb-15 23:30N 06°02' E 001°15'0 0.1
2018-Feb-15 22:57N 06°02' E 001°15'0 0.0
2018-Feb-15 22:30N 06°02' E 001°15'0 0.0
2018-Feb-15 21:33N 06°02' E 001°15'0 0.1
2018-Feb-15 21:30N 06°02' E 001°15'0 0.0
2018-Feb-15 19:51N 06°02' E 001°15'0 0.0
2018-Feb-15 19:30N 06°02' E 001°15'4 3.3
2018-Feb-15 18:23N 06°02' E 001°19'3 8.8
2018-Feb-15 18:00N 06°02' E 001°22'4 8.4
2018-Feb-15 17:29N 06°01' E 001°26'62 2.4
2018-Feb-14 15:39N 06°21' E 002°26'0 0.3
2018-Feb-14 15:30N 06°21' E 002°26'0 0.0
2018-Feb-13 20:53N 06°21' E 002°26'0 0.0
2018-Feb-13 20:16N 06°21' E 002°26'0 0.0
2018-Feb-13 20:00N 06°21' E 002°26'0 0.1
2018-Feb-13 19:31N 06°21' E 002°26'2 4.0
2018-Feb-13 19:00N 06°20' E 002°27'3 1.9
2018-Feb-13 17:15N 06°17' E 002°30'  
Track history (hours):
 
Tides and Currents Weather Stations Pressure Air Temp Water Temp Dewpoint Dewpoint Depression Visibility Wind Speed Wind Dir Waves Ship Positions

Marida Marigold

Last reported at 2018-Feb-21 04:21 UTC. Time now 2018-Feb-23 04:22 UTC.
Position N 04°39' W 000°53'.

Length 128 m; draft 6 m.

Type: Ship. MMSI: 538005559.

Date/timePositionNaut miles runAvg speedWind from/ knotsBaromVisibWave heightAir tempDewpointWater temp
2018-Feb-21 04:21N 04°39' W 000°53'3 9.0
2018-Feb-21 04:00N 04°41' W 000°50'5 9.1
2018-Feb-21 03:30N 04°43' W 000°47'5 9.2
2018-Feb-21 03:00N 04°46' W 000°43'5 9.2
2018-Feb-21 02:30N 04°47' W 000°38'5 9.2
2018-Feb-21 01:59N 04°49' W 000°34'4 9.3
2018-Feb-21 01:30N 04°51' W 000°30'5 9.2
2018-Feb-21 01:00N 04°54' W 000°26'5 9.2
2018-Feb-21 00:30N 04°56' W 000°22'5 9.1
2018-Feb-21 00:00N 04°59' W 000°18'11 8.9
2018-Feb-20 22:44N 05°05' W 000°09'2 8.9
2018-Feb-20 22:30N 05°06' W 000°07'4 8.8
2018-Feb-20 22:00N 05°10' W 000°05'4 8.8
2018-Feb-20 21:30N 05°13' W 000°02'4 8.7
2018-Feb-20 21:00N 05°17' W 000°01'5 9.2
2018-Feb-20 20:29N 05°22' W 000°01'5 9.2
2018-Feb-20 19:58N 05°27' W 000°01'4 9.2
2018-Feb-20 19:30N 05°31' W 000°01'3 6.2
2018-Feb-20 19:00N 05°34' W 000°00'1 1.3
2018-Feb-20 18:30N 05°35' E 000°00'0 0.4
2018-Feb-20 17:59N 05°35' W 000°00'0 0.0
2018-Feb-20 17:29N 05°35' W 000°00'0 0.0
2018-Feb-20 16:59N 05°35' W 000°00'0 0.0
2018-Feb-20 16:29N 05°35' W 000°00'0 0.1
2018-Feb-20 15:59N 05°35' W 000°00'0 0.0
2018-Feb-20 15:29N 05°35' W 000°00'0 0.2
2018-Feb-20 14:59N 05°35' E 000°00'0 0.2
2018-Feb-20 14:29N 05°35' E 000°00'0 0.2
2018-Feb-20 14:01N 05°35' W 000°00'0 0.1
2018-Feb-20 13:29N 05°35' W 000°00'0 0.0
2018-Feb-20 12:59N 05°35' W 000°00'0 0.1
2018-Feb-20 12:29N 05°35' W 000°00'0 0.0
2018-Feb-20 11:59N 05°35' W 000°00'0 0.0
2018-Feb-20 11:29N 05°35' W 000°00'0 0.5
2018-Feb-20 10:59N 05°35' E 000°00'0 0.1
2018-Feb-20 10:29N 05°35' E 000°00'0 0.0
2018-Feb-20 09:59N 05°35' E 000°00'0 0.0
2018-Feb-20 09:29N 05°35' E 000°00'0 0.0
2018-Feb-20 08:59N 05°35' E 000°00'0 0.0
2018-Feb-20 08:29N 05°35' E 000°00'0 0.0
2018-Feb-20 07:59N 05°35' E 000°00'0 0.0
2018-Feb-20 07:31N 05°35' E 000°00'0 0.0
2018-Feb-20 07:01N 05°35' E 000°00'0 0.0
2018-Feb-20 06:31N 05°35' E 000°00'1 1.2
2018-Feb-20 06:01N 05°35' E 000°01'1 1.2
2018-Feb-20 05:31N 05°34' E 000°01'1 1.1
2018-Feb-20 05:01N 05°34' E 000°02'3 5.7
2018-Feb-20 04:30N 05°33' E 000°04'3 5.8
2018-Feb-20 04:01N 05°31' E 000°06'3 5.9
2018-Feb-20 03:31N 05°29' E 000°09'3 6.1
2018-Feb-20 03:01N 05°27' E 000°11'3 6.4
2018-Feb-20 02:31N 05°25' E 000°13'4 8.4
2018-Feb-20 02:01N 05°22' E 000°17'5 9.1
2018-Feb-20 01:31N 05°19' E 000°20'5 9.1
2018-Feb-20 01:00N 05°17' E 000°24'25 7.9
2018-Feb-19 21:49N 05°01' E 000°43'2 1.1
2018-Feb-19 19:46N 04°60' E 000°41'15 0.7
2018-Feb-18 21:46N 04°46' E 000°35'5 8.4
2018-Feb-18 21:12N 04°48' E 000°40'4 8.4
2018-Feb-18 20:46N 04°49' E 000°43'3 8.5
2018-Feb-18 20:28N 04°50' E 000°46'4 8.6
2018-Feb-18 19:58N 04°52' E 000°50'4 8.5
2018-Feb-18 19:30N 04°53' E 000°53'10 1.2
2018-Feb-18 11:33N 04°60' E 001°00'0 1.6
2018-Feb-18 11:30N 04°60' E 001°00'19 1.0
2018-Feb-17 16:45N 04°54' E 000°42'0 1.5
2018-Feb-17 16:30N 04°54' E 000°42'66 6.0
2018-Feb-17 05:32N 05°51' E 001°15'2 8.5
2018-Feb-17 05:21N 05°53' E 001°15'3 8.6
2018-Feb-17 04:57N 05°56' E 001°14'4 7.8
2018-Feb-17 04:26N 06°00' E 001°13'0 0.8
2018-Feb-17 03:59N 06°00' E 001°13'1 1.4
2018-Feb-17 03:25N 06°01' E 001°14'0 0.2
2018-Feb-17 02:59N 06°01' E 001°14'0 0.1
2018-Feb-17 02:29N 06°01' E 001°14'0 0.0
2018-Feb-16 20:41N 06°01' E 001°14'0 0.0
2018-Feb-16 20:29N 06°01' E 001°14'0 0.0
2018-Feb-16 19:56N 06°01' E 001°14'0 0.0
2018-Feb-16 19:29N 06°01' E 001°14'0 0.0
2018-Feb-16 18:59N 06°01' E 001°14'0 0.0
2018-Feb-16 18:29N 06°01' E 001°14'0 0.0
2018-Feb-16 17:35N 06°01' E 001°14'0 0.0
2018-Feb-16 17:29N 06°01' E 001°14'0 0.0
2018-Feb-16 16:59N 06°01' E 001°14'0 0.0
2018-Feb-16 16:20N 06°01' E 001°14'0 0.0
2018-Feb-16 15:59N 06°01' E 001°14'0 0.0
2018-Feb-16 15:29N 06°01' E 001°14'2 0.1
2018-Feb-16 02:48N 06°02' E 001°15'0 0.0
2018-Feb-16 02:21N 06°02' E 001°15'0 0.0
2018-Feb-16 02:00N 06°02' E 001°15'0 0.0
2018-Feb-16 01:24N 06°02' E 001°15'0 0.0
2018-Feb-16 01:00N 06°02' E 001°15'0 0.0
2018-Feb-16 00:27N 06°02' E 001°15'0 0.0
2018-Feb-16 00:00N 06°02' E 001°15'0 0.0
2018-Feb-15 23:30N 06°02' E 001°15'0 0.1
2018-Feb-15 22:57N 06°02' E 001°15'0 0.0
2018-Feb-15 22:30N 06°02' E 001°15'0 0.0
2018-Feb-15 21:33N 06°02' E 001°15'0 0.1
2018-Feb-15 21:30N 06°02' E 001°15'0 0.0
2018-Feb-15 19:51N 06°02' E 001°15'0 0.0
2018-Feb-15 19:30N 06°02' E 001°15'4 3.3
2018-Feb-15 18:23N 06°02' E 001°19'3 8.8
2018-Feb-15 18:00N 06°02' E 001°22'4 8.4
2018-Feb-15 17:29N 06°01' E 001°26'62 2.4
2018-Feb-14 15:39N 06°21' E 002°26'0 0.3
2018-Feb-14 15:30N 06°21' E 002°26'0 0.0
2018-Feb-13 20:53N 06°21' E 002°26'0 0.0
2018-Feb-13 20:16N 06°21' E 002°26'0 0.0
2018-Feb-13 20:00N 06°21' E 002°26'0 0.1
2018-Feb-13 19:31N 06°21' E 002°26'2 4.0
2018-Feb-13 19:00N 06°20' E 002°27'3 1.9
2018-Feb-13 17:15N 06°17' E 002°30'  

Dump ship's entire track history